sensor_id;sensor_type;location;lat;lon;timestamp;P1;durP1;ratioP1;P2;durP2;ratioP2
18887;SDS011;9576;47.792;9.628;2022-10-04T00:01:19;13.60;;;6.05;;
18887;SDS011;9576;47.792;9.628;2022-10-04T00:04:23;10.00;;;5.90;;
18887;SDS011;9576;47.792;9.628;2022-10-04T00:07:28;14.13;;;5.88;;
18887;SDS011;9576;47.792;9.628;2022-10-04T00:10:34;17.08;;;6.32;;
18887;SDS011;9576;47.792;9.628;2022-10-04T00:13:36;11.13;;;6.03;;
18887;SDS011;9576;47.792;9.628;2022-10-04T00:16:39;19.85;;;6.05;;
18887;SDS011;9576;47.792;9.628;2022-10-04T00:23:23;12.25;;;6.30;;
18887;SDS011;9576;47.792;9.628;2022-10-04T00:30:13;14.10;;;6.57;;
18887;SDS011;9576;47.792;9.628;2022-10-04T00:33:32;14.68;;;5.97;;
18887;SDS011;9576;47.792;9.628;2022-10-04T00:36:44;15.57;;;6.50;;
18887;SDS011;9576;47.792;9.628;2022-10-04T00:39:56;15.27;;;5.50;;
18887;SDS011;9576;47.792;9.628;2022-10-04T00:43:01;10.82;;;5.07;;
18887;SDS011;9576;47.792;9.628;2022-10-04T00:46:09;15.60;;;6.10;;
18887;SDS011;9576;47.792;9.628;2022-10-04T00:49:15;10.95;;;5.85;;
18887;SDS011;9576;47.792;9.628;2022-10-04T00:52:22;20.95;;;5.18;;
18887;SDS011;9576;47.792;9.628;2022-10-04T00:55:29;12.85;;;5.10;;
18887;SDS011;9576;47.792;9.628;2022-10-04T00:58:37;16.95;;;4.65;;
18887;SDS011;9576;47.792;9.628;2022-10-04T01:01:46;12.13;;;5.65;;
18887;SDS011;9576;47.792;9.628;2022-10-04T01:04:52;9.63;;;6.00;;
18887;SDS011;9576;47.792;9.628;2022-10-04T01:08:02;10.73;;;5.43;;
18887;SDS011;9576;47.792;9.628;2022-10-04T01:11:09;18.55;;;5.35;;
18887;SDS011;9576;47.792;9.628;2022-10-04T01:14:18;21.85;;;6.57;;
18887;SDS011;9576;47.792;9.628;2022-10-04T01:17:29;9.98;;;5.28;;
18887;SDS011;9576;47.792;9.628;2022-10-04T01:20:32;24.55;;;5.78;;
18887;SDS011;9576;47.792;9.628;2022-10-04T01:23:42;11.90;;;5.43;;
18887;SDS011;9576;47.792;9.628;2022-10-04T01:26:46;8.85;;;5.60;;
18887;SDS011;9576;47.792;9.628;2022-10-04T01:29:48;14.57;;;5.57;;
18887;SDS011;9576;47.792;9.628;2022-10-04T01:32:50;16.27;;;6.43;;
18887;SDS011;9576;47.792;9.628;2022-10-04T01:35:52;10.75;;;5.72;;
18887;SDS011;9576;47.792;9.628;2022-10-04T01:38:56;19.65;;;6.45;;
18887;SDS011;9576;47.792;9.628;2022-10-04T01:41:59;20.40;;;6.32;;
18887;SDS011;9576;47.792;9.628;2022-10-04T01:45:06;13.75;;;5.95;;
18887;SDS011;9576;47.792;9.628;2022-10-04T01:48:13;20.42;;;5.75;;
18887;SDS011;9576;47.792;9.628;2022-10-04T01:51:20;12.52;;;6.18;;
18887;SDS011;9576;47.792;9.628;2022-10-04T01:54:30;8.10;;;4.50;;
18887;SDS011;9576;47.792;9.628;2022-10-04T01:57:35;13.75;;;6.50;;
18887;SDS011;9576;47.792;9.628;2022-10-04T02:00:41;10.95;;;5.05;;
18887;SDS011;9576;47.792;9.628;2022-10-04T02:03:51;9.77;;;5.35;;
18887;SDS011;9576;47.792;9.628;2022-10-04T02:06:58;15.93;;;5.78;;
18887;SDS011;9576;47.792;9.628;2022-10-04T02:10:04;9.02;;;4.88;;
18887;SDS011;9576;47.792;9.628;2022-10-04T02:13:09;12.55;;;5.53;;
18887;SDS011;9576;47.792;9.628;2022-10-04T02:16:14;10.18;;;5.53;;
18887;SDS011;9576;47.792;9.628;2022-10-04T02:19:17;9.55;;;5.13;;
18887;SDS011;9576;47.792;9.628;2022-10-04T02:22:21;14.48;;;4.38;;
18887;SDS011;9576;47.792;9.628;2022-10-04T02:25:26;14.05;;;6.00;;
18887;SDS011;9576;47.792;9.628;2022-10-04T02:28:28;8.60;;;4.70;;
18887;SDS011;9576;47.792;9.628;2022-10-04T02:31:33;8.73;;;4.80;;
18887;SDS011;9576;47.792;9.628;2022-10-04T02:34:55;9.15;;;4.95;;
18887;SDS011;9576;47.792;9.628;2022-10-04T02:38:00;8.02;;;4.40;;
18887;SDS011;9576;47.792;9.628;2022-10-04T02:41:10;13.38;;;5.70;;
18887;SDS011;9576;47.792;9.628;2022-10-04T02:44:22;10.80;;;5.38;;
18887;SDS011;9576;47.792;9.628;2022-10-04T02:47:29;12.27;;;5.75;;
18887;SDS011;9576;47.792;9.628;2022-10-04T02:50:38;16.45;;;5.03;;
18887;SDS011;9576;47.792;9.628;2022-10-04T02:53:49;16.38;;;5.63;;
18887;SDS011;9576;47.792;9.628;2022-10-04T02:56:58;15.57;;;5.30;;
18887;SDS011;9576;47.792;9.628;2022-10-04T03:00:02;13.02;;;4.90;;
18887;SDS011;9576;47.792;9.628;2022-10-04T03:03:15;13.27;;;4.40;;
18887;SDS011;9576;47.792;9.628;2022-10-04T03:06:22;9.98;;;5.68;;
18887;SDS011;9576;47.792;9.628;2022-10-04T03:09:31;7.50;;;4.93;;
18887;SDS011;9576;47.792;9.628;2022-10-04T03:12:37;8.10;;;5.15;;
18887;SDS011;9576;47.792;9.628;2022-10-04T03:15:40;26.15;;;5.90;;
18887;SDS011;9576;47.792;9.628;2022-10-04T03:18:43;15.00;;;6.07;;
18887;SDS011;9576;47.792;9.628;2022-10-04T03:21:48;15.77;;;5.95;;
18887;SDS011;9576;47.792;9.628;2022-10-04T03:24:52;12.00;;;6.05;;
18887;SDS011;9576;47.792;9.628;2022-10-04T03:27:59;15.57;;;5.05;;
18887;SDS011;9576;47.792;9.628;2022-10-04T03:31:02;18.20;;;5.28;;
18887;SDS011;9576;47.792;9.628;2022-10-04T03:34:05;8.00;;;5.07;;
18887;SDS011;9576;47.792;9.628;2022-10-04T03:37:15;9.20;;;5.50;;
18887;SDS011;9576;47.792;9.628;2022-10-04T03:40:20;12.25;;;4.95;;
18887;SDS011;9576;47.792;9.628;2022-10-04T03:43:29;12.63;;;5.05;;
18887;SDS011;9576;47.792;9.628;2022-10-04T03:46:33;9.85;;;5.05;;
18887;SDS011;9576;47.792;9.628;2022-10-04T03:49:36;9.85;;;5.10;;
18887;SDS011;9576;47.792;9.628;2022-10-04T03:52:41;13.27;;;5.45;;
18887;SDS011;9576;47.792;9.628;2022-10-04T03:55:47;11.50;;;6.65;;
18887;SDS011;9576;47.792;9.628;2022-10-04T03:58:51;15.85;;;6.05;;
18887;SDS011;9576;47.792;9.628;2022-10-04T04:01:59;11.55;;;4.88;;
18887;SDS011;9576;47.792;9.628;2022-10-04T04:05:07;7.35;;;4.78;;
18887;SDS011;9576;47.792;9.628;2022-10-04T04:08:16;7.47;;;4.55;;
18887;SDS011;9576;47.792;9.628;2022-10-04T04:11:24;14.27;;;5.68;;
18887;SDS011;9576;47.792;9.628;2022-10-04T04:14:28;10.95;;;5.43;;
18887;SDS011;9576;47.792;9.628;2022-10-04T04:17:35;10.73;;;4.90;;
18887;SDS011;9576;47.792;9.628;2022-10-04T04:20:40;7.30;;;4.82;;
18887;SDS011;9576;47.792;9.628;2022-10-04T04:23:44;9.68;;;5.65;;
18887;SDS011;9576;47.792;9.628;2022-10-04T04:26:52;11.38;;;5.63;;
18887;SDS011;9576;47.792;9.628;2022-10-04T04:29:58;14.13;;;6.88;;
18887;SDS011;9576;47.792;9.628;2022-10-04T04:33:03;11.95;;;5.78;;
18887;SDS011;9576;47.792;9.628;2022-10-04T04:36:11;11.52;;;5.97;;
18887;SDS011;9576;47.792;9.628;2022-10-04T04:39:16;12.82;;;5.72;;
18887;SDS011;9576;47.792;9.628;2022-10-04T04:42:36;31.45;;;11.23;;
18887;SDS011;9576;47.792;9.628;2022-10-04T04:45:39;23.33;;;10.43;;
18887;SDS011;9576;47.792;9.628;2022-10-04T04:48:42;17.25;;;6.82;;
18887;SDS011;9576;47.792;9.628;2022-10-04T04:51:46;17.70;;;6.93;;
18887;SDS011;9576;47.792;9.628;2022-10-04T04:54:50;11.98;;;6.57;;
18887;SDS011;9576;47.792;9.628;2022-10-04T04:57:53;10.13;;;5.35;;
18887;SDS011;9576;47.792;9.628;2022-10-04T05:00:59;8.73;;;5.38;;
18887;SDS011;9576;47.792;9.628;2022-10-04T05:04:04;11.63;;;5.32;;
18887;SDS011;9576;47.792;9.628;2022-10-04T05:07:15;13.43;;;5.28;;
18887;SDS011;9576;47.792;9.628;2022-10-04T05:10:19;16.25;;;6.15;;
18887;SDS011;9576;47.792;9.628;2022-10-04T05:13:32;12.55;;;6.10;;
18887;SDS011;9576;47.792;9.628;2022-10-04T05:16:42;11.18;;;4.60;;
18887;SDS011;9576;47.792;9.628;2022-10-04T05:19:47;23.35;;;6.13;;
18887;SDS011;9576;47.792;9.628;2022-10-04T05:22:50;11.52;;;5.57;;
18887;SDS011;9576;47.792;9.628;2022-10-04T05:25:54;12.50;;;5.47;;
18887;SDS011;9576;47.792;9.628;2022-10-04T05:28:58;13.65;;;5.38;;
18887;SDS011;9576;47.792;9.628;2022-10-04T05:32:07;16.70;;;5.13;;
18887;SDS011;9576;47.792;9.628;2022-10-04T05:35:21;13.77;;;5.38;;
18887;SDS011;9576;47.792;9.628;2022-10-04T05:38:25;9.05;;;5.32;;
18887;SDS011;9576;47.792;9.628;2022-10-04T05:41:35;8.93;;;5.40;;
18887;SDS011;9576;47.792;9.628;2022-10-04T05:44:45;13.68;;;6.05;;
18887;SDS011;9576;47.792;9.628;2022-10-04T05:47:53;13.73;;;5.95;;
18887;SDS011;9576;47.792;9.628;2022-10-04T05:50:56;17.17;;;7.70;;
18887;SDS011;9576;47.792;9.628;2022-10-04T05:53:59;14.25;;;6.43;;
18887;SDS011;9576;47.792;9.628;2022-10-04T06:00:31;16.50;;;6.85;;
18887;SDS011;9576;47.792;9.628;2022-10-04T06:03:48;33.38;;;11.85;;
18887;SDS011;9576;47.792;9.628;2022-10-04T06:07:04;37.00;;;16.70;;
18887;SDS011;9576;47.792;9.628;2022-10-04T06:10:23;26.98;;;11.48;;
18887;SDS011;9576;47.792;9.628;2022-10-04T06:17:34;15.88;;;7.50;;
18887;SDS011;9576;47.792;9.628;2022-10-04T06:24:22;16.38;;;6.97;;
18887;SDS011;9576;47.792;9.628;2022-10-04T06:27:29;11.98;;;6.05;;
18887;SDS011;9576;47.792;9.628;2022-10-04T06:30:37;20.65;;;8.35;;
18887;SDS011;9576;47.792;9.628;2022-10-04T06:34:03;46.03;;;17.92;;
18887;SDS011;9576;47.792;9.628;2022-10-04T06:37:24;14.18;;;7.50;;
18887;SDS011;9576;47.792;9.628;2022-10-04T06:40:37;16.83;;;6.63;;
18887;SDS011;9576;47.792;9.628;2022-10-04T06:43:58;13.32;;;6.78;;
18887;SDS011;9576;47.792;9.628;2022-10-04T06:47:20;12.00;;;5.95;;
18887;SDS011;9576;47.792;9.628;2022-10-04T06:50:31;13.90;;;5.90;;
18887;SDS011;9576;47.792;9.628;2022-10-04T06:53:48;16.15;;;6.65;;
18887;SDS011;9576;47.792;9.628;2022-10-04T06:57:05;23.02;;;6.40;;
18887;SDS011;9576;47.792;9.628;2022-10-04T07:00:18;13.20;;;6.25;;
18887;SDS011;9576;47.792;9.628;2022-10-04T07:03:23;18.05;;;7.15;;
18887;SDS011;9576;47.792;9.628;2022-10-04T07:06:30;17.05;;;6.72;;
18887;SDS011;9576;47.792;9.628;2022-10-04T07:09:39;19.15;;;6.85;;
18887;SDS011;9576;47.792;9.628;2022-10-04T07:15:49;16.05;;;7.22;;
18887;SDS011;9576;47.792;9.628;2022-10-04T07:18:59;17.23;;;7.68;;
18887;SDS011;9576;47.792;9.628;2022-10-04T07:22:11;30.30;;;8.40;;
18887;SDS011;9576;47.792;9.628;2022-10-04T07:25:19;23.67;;;10.23;;
18887;SDS011;9576;47.792;9.628;2022-10-04T07:28:26;22.98;;;11.13;;
18887;SDS011;9576;47.792;9.628;2022-10-04T07:31:50;24.70;;;7.80;;
18887;SDS011;9576;47.792;9.628;2022-10-04T07:35:03;35.03;;;11.43;;
18887;SDS011;9576;47.792;9.628;2022-10-04T07:38:15;19.70;;;6.90;;
18887;SDS011;9576;47.792;9.628;2022-10-04T07:41:24;13.73;;;6.72;;
18887;SDS011;9576;47.792;9.628;2022-10-04T07:44:32;14.25;;;7.95;;
18887;SDS011;9576;47.792;9.628;2022-10-04T07:47:36;18.25;;;7.82;;
18887;SDS011;9576;47.792;9.628;2022-10-04T07:50:39;34.92;;;9.70;;
18887;SDS011;9576;47.792;9.628;2022-10-04T07:53:47;17.73;;;7.88;;
18887;SDS011;9576;47.792;9.628;2022-10-04T07:56:56;33.20;;;9.55;;
18887;SDS011;9576;47.792;9.628;2022-10-04T08:00:04;35.22;;;13.38;;
18887;SDS011;9576;47.792;9.628;2022-10-04T08:03:16;22.30;;;9.35;;
18887;SDS011;9576;47.792;9.628;2022-10-04T08:06:34;14.60;;;8.48;;
18887;SDS011;9576;47.792;9.628;2022-10-04T08:09:42;22.73;;;10.30;;
18887;SDS011;9576;47.792;9.628;2022-10-04T08:12:56;26.05;;;11.63;;
18887;SDS011;9576;47.792;9.628;2022-10-04T08:16:08;53.20;;;22.40;;
18887;SDS011;9576;47.792;9.628;2022-10-04T08:19:21;43.92;;;17.08;;
18887;SDS011;9576;47.792;9.628;2022-10-04T08:22:46;23.63;;;9.88;;
18887;SDS011;9576;47.792;9.628;2022-10-04T08:26:01;19.98;;;10.13;;
18887;SDS011;9576;47.792;9.628;2022-10-04T08:29:20;26.15;;;9.95;;
18887;SDS011;9576;47.792;9.628;2022-10-04T08:32:49;26.73;;;10.35;;
18887;SDS011;9576;47.792;9.628;2022-10-04T08:36:03;24.27;;;9.30;;
18887;SDS011;9576;47.792;9.628;2022-10-04T08:39:22;41.65;;;15.07;;
18887;SDS011;9576;47.792;9.628;2022-10-04T08:42:49;27.48;;;10.10;;
18887;SDS011;9576;47.792;9.628;2022-10-04T08:50:00;29.38;;;9.95;;
18887;SDS011;9576;47.792;9.628;2022-10-04T08:57:13;18.52;;;9.75;;
18887;SDS011;9576;47.792;9.628;2022-10-04T09:00:30;22.65;;;9.63;;
18887;SDS011;9576;47.792;9.628;2022-10-04T09:07:11;24.80;;;8.98;;
18887;SDS011;9576;47.792;9.628;2022-10-04T09:10:41;25.50;;;8.90;;
18887;SDS011;9576;47.792;9.628;2022-10-04T09:13:56;23.55;;;8.23;;
18887;SDS011;9576;47.792;9.628;2022-10-04T09:17:19;28.25;;;9.60;;
18887;SDS011;9576;47.792;9.628;2022-10-04T09:20:27;26.98;;;8.85;;
18887;SDS011;9576;47.792;9.628;2022-10-04T09:23:52;20.85;;;7.93;;
18887;SDS011;9576;47.792;9.628;2022-10-04T09:27:11;16.55;;;7.88;;
18887;SDS011;9576;47.792;9.628;2022-10-04T09:30:21;19.00;;;8.20;;
18887;SDS011;9576;47.792;9.628;2022-10-04T09:33:41;18.02;;;9.27;;
18887;SDS011;9576;47.792;9.628;2022-10-04T09:37:00;23.58;;;8.05;;
18887;SDS011;9576;47.792;9.628;2022-10-04T09:44:00;16.88;;;8.55;;
18887;SDS011;9576;47.792;9.628;2022-10-04T09:47:25;17.95;;;8.65;;
18887;SDS011;9576;47.792;9.628;2022-10-04T09:50:51;22.92;;;11.05;;
18887;SDS011;9576;47.792;9.628;2022-10-04T09:54:17;16.52;;;8.25;;
18887;SDS011;9576;47.792;9.628;2022-10-04T09:57:50;21.50;;;7.65;;
18887;SDS011;9576;47.792;9.628;2022-10-04T10:01:08;16.13;;;8.57;;
18887;SDS011;9576;47.792;9.628;2022-10-04T10:04:26;18.67;;;8.90;;
18887;SDS011;9576;47.792;9.628;2022-10-04T10:07:37;18.98;;;7.97;;
18887;SDS011;9576;47.792;9.628;2022-10-04T10:10:53;13.65;;;7.88;;
18887;SDS011;9576;47.792;9.628;2022-10-04T10:14:31;15.48;;;6.93;;
18887;SDS011;9576;47.792;9.628;2022-10-04T10:18:01;21.55;;;6.88;;
18887;SDS011;9576;47.792;9.628;2022-10-04T10:21:20;12.40;;;6.35;;
18887;SDS011;9576;47.792;9.628;2022-10-04T10:24:56;13.00;;;7.68;;
18887;SDS011;9576;47.792;9.628;2022-10-04T10:31:46;16.20;;;7.45;;
18887;SDS011;9576;47.792;9.628;2022-10-04T10:38:20;14.63;;;6.30;;
18887;SDS011;9576;47.792;9.628;2022-10-04T10:41:34;15.95;;;7.55;;
18887;SDS011;9576;47.792;9.628;2022-10-04T10:44:51;22.17;;;7.47;;
18887;SDS011;9576;47.792;9.628;2022-10-04T10:48:13;91.38;;;31.45;;
18887;SDS011;9576;47.792;9.628;2022-10-04T10:51:24;91.70;;;32.78;;
18887;SDS011;9576;47.792;9.628;2022-10-04T10:55:05;17.35;;;8.93;;
18887;SDS011;9576;47.792;9.628;2022-10-04T10:58:38;21.25;;;6.60;;
18887;SDS011;9576;47.792;9.628;2022-10-04T11:02:07;10.80;;;6.63;;
18887;SDS011;9576;47.792;9.628;2022-10-04T11:09:27;9.98;;;6.18;;
18887;SDS011;9576;47.792;9.628;2022-10-04T11:19:42;15.90;;;8.13;;
18887;SDS011;9576;47.792;9.628;2022-10-04T11:30:18;8.55;;;6.00;;
18887;SDS011;9576;47.792;9.628;2022-10-04T11:33:41;16.08;;;6.47;;
18887;SDS011;9576;47.792;9.628;2022-10-04T11:40:09;38.67;;;13.82;;
18887;SDS011;9576;47.792;9.628;2022-10-04T11:43:31;9.13;;;5.15;;
18887;SDS011;9576;47.792;9.628;2022-10-04T11:46:57;12.77;;;5.25;;
18887;SDS011;9576;47.792;9.628;2022-10-04T11:50:19;12.60;;;6.45;;
18887;SDS011;9576;47.792;9.628;2022-10-04T11:53:32;24.27;;;7.88;;
18887;SDS011;9576;47.792;9.628;2022-10-04T11:57:05;8.30;;;5.45;;
18887;SDS011;9576;47.792;9.628;2022-10-04T12:00:19;16.45;;;6.28;;
18887;SDS011;9576;47.792;9.628;2022-10-04T12:03:36;10.27;;;5.53;;
18887;SDS011;9576;47.792;9.628;2022-10-04T12:06:56;8.57;;;5.15;;
18887;SDS011;9576;47.792;9.628;2022-10-04T12:10:23;8.00;;;5.10;;
18887;SDS011;9576;47.792;9.628;2022-10-04T12:13:36;8.23;;;4.35;;
18887;SDS011;9576;47.792;9.628;2022-10-04T12:16:55;9.88;;;5.03;;
18887;SDS011;9576;47.792;9.628;2022-10-04T12:20:23;9.23;;;5.15;;
18887;SDS011;9576;47.792;9.628;2022-10-04T12:23:59;11.38;;;4.18;;
18887;SDS011;9576;47.792;9.628;2022-10-04T12:27:23;12.55;;;5.10;;
18887;SDS011;9576;47.792;9.628;2022-10-04T12:31:02;10.80;;;4.63;;
18887;SDS011;9576;47.792;9.628;2022-10-04T12:34:15;14.23;;;5.60;;
18887;SDS011;9576;47.792;9.628;2022-10-04T12:37:28;20.73;;;4.63;;
18887;SDS011;9576;47.792;9.628;2022-10-04T12:40:35;16.02;;;5.25;;
18887;SDS011;9576;47.792;9.628;2022-10-04T12:43:47;6.35;;;4.43;;
18887;SDS011;9576;47.792;9.628;2022-10-04T12:46:56;10.18;;;5.90;;
18887;SDS011;9576;47.792;9.628;2022-10-04T12:50:10;10.23;;;4.30;;
18887;SDS011;9576;47.792;9.628;2022-10-04T12:53:24;10.52;;;4.68;;
18887;SDS011;9576;47.792;9.628;2022-10-04T12:56:37;8.13;;;4.50;;
18887;SDS011;9576;47.792;9.628;2022-10-04T12:59:48;10.68;;;4.55;;
18887;SDS011;9576;47.792;9.628;2022-10-04T13:03:04;7.03;;;4.60;;
18887;SDS011;9576;47.792;9.628;2022-10-04T13:06:25;9.07;;;4.05;;
18887;SDS011;9576;47.792;9.628;2022-10-04T13:09:41;8.55;;;4.32;;
18887;SDS011;9576;47.792;9.628;2022-10-04T13:16:28;8.40;;;4.82;;
18887;SDS011;9576;47.792;9.628;2022-10-04T13:19:43;6.78;;;3.78;;
18887;SDS011;9576;47.792;9.628;2022-10-04T13:22:56;12.45;;;4.95;;
18887;SDS011;9576;47.792;9.628;2022-10-04T13:26:09;5.82;;;3.65;;
18887;SDS011;9576;47.792;9.628;2022-10-04T13:29:23;5.93;;;3.75;;
18887;SDS011;9576;47.792;9.628;2022-10-04T13:32:32;18.00;;;7.15;;
18887;SDS011;9576;47.792;9.628;2022-10-04T13:35:45;19.48;;;7.63;;
18887;SDS011;9576;47.792;9.628;2022-10-04T13:42:25;18.13;;;9.83;;
18887;SDS011;9576;47.792;9.628;2022-10-04T13:45:38;11.70;;;3.80;;
18887;SDS011;9576;47.792;9.628;2022-10-04T13:48:56;10.25;;;3.40;;
18887;SDS011;9576;47.792;9.628;2022-10-04T13:52:12;5.50;;;3.03;;
18887;SDS011;9576;47.792;9.628;2022-10-04T13:55:44;9.73;;;4.07;;
18887;SDS011;9576;47.792;9.628;2022-10-04T13:59:12;10.15;;;3.45;;
18887;SDS011;9576;47.792;9.628;2022-10-04T14:02:37;6.22;;;4.22;;
18887;SDS011;9576;47.792;9.628;2022-10-04T14:06:11;9.32;;;4.20;;
18887;SDS011;9576;47.792;9.628;2022-10-04T14:13:51;8.52;;;2.92;;
18887;SDS011;9576;47.792;9.628;2022-10-04T14:24:46;5.35;;;3.10;;
18887;SDS011;9576;47.792;9.628;2022-10-04T14:28:27;4.78;;;3.03;;
18887;SDS011;9576;47.792;9.628;2022-10-04T14:32:17;8.75;;;3.28;;
18887;SDS011;9576;47.792;9.628;2022-10-04T14:35:41;6.72;;;3.50;;
18887;SDS011;9576;47.792;9.628;2022-10-04T14:38:59;7.72;;;3.42;;
18887;SDS011;9576;47.792;9.628;2022-10-04T14:42:30;7.32;;;2.85;;
18887;SDS011;9576;47.792;9.628;2022-10-04T14:45:53;6.00;;;3.60;;
18887;SDS011;9576;47.792;9.628;2022-10-04T14:49:11;9.93;;;3.42;;
18887;SDS011;9576;47.792;9.628;2022-10-04T14:52:27;6.15;;;3.08;;
18887;SDS011;9576;47.792;9.628;2022-10-04T14:55:49;6.85;;;3.35;;
18887;SDS011;9576;47.792;9.628;2022-10-04T14:59:20;6.13;;;2.92;;
18887;SDS011;9576;47.792;9.628;2022-10-04T15:02:45;13.27;;;3.35;;
18887;SDS011;9576;47.792;9.628;2022-10-04T15:06:02;8.55;;;3.58;;
18887;SDS011;9576;47.792;9.628;2022-10-04T15:09:19;4.38;;;2.97;;
18887;SDS011;9576;47.792;9.628;2022-10-04T15:12:40;5.20;;;3.28;;
18887;SDS011;9576;47.792;9.628;2022-10-04T15:19:01;8.57;;;3.75;;
18887;SDS011;9576;47.792;9.628;2022-10-04T15:22:11;7.05;;;3.53;;
18887;SDS011;9576;47.792;9.628;2022-10-04T15:25:35;5.88;;;3.80;;
18887;SDS011;9576;47.792;9.628;2022-10-04T15:28:51;12.15;;;3.67;;
18887;SDS011;9576;47.792;9.628;2022-10-04T15:32:12;14.02;;;3.60;;
18887;SDS011;9576;47.792;9.628;2022-10-04T15:35:25;9.90;;;4.38;;
18887;SDS011;9576;47.792;9.628;2022-10-04T15:38:37;8.45;;;3.45;;
18887;SDS011;9576;47.792;9.628;2022-10-04T15:41:50;16.83;;;3.37;;
18887;SDS011;9576;47.792;9.628;2022-10-04T15:55:57;4.68;;;2.83;;
18887;SDS011;9576;47.792;9.628;2022-10-04T16:02:51;7.47;;;3.28;;
18887;SDS011;9576;47.792;9.628;2022-10-04T16:06:03;13.90;;;3.90;;
18887;SDS011;9576;47.792;9.628;2022-10-04T16:09:13;10.38;;;4.07;;
18887;SDS011;9576;47.792;9.628;2022-10-04T16:12:25;4.47;;;3.08;;
18887;SDS011;9576;47.792;9.628;2022-10-04T16:15:33;6.05;;;2.97;;
18887;SDS011;9576;47.792;9.628;2022-10-04T16:18:37;10.57;;;3.65;;
18887;SDS011;9576;47.792;9.628;2022-10-04T16:21:49;8.15;;;3.85;;
18887;SDS011;9576;47.792;9.628;2022-10-04T16:24:53;6.22;;;3.30;;
18887;SDS011;9576;47.792;9.628;2022-10-04T16:28:01;4.53;;;3.47;;
18887;SDS011;9576;47.792;9.628;2022-10-04T16:31:23;10.95;;;4.38;;
18887;SDS011;9576;47.792;9.628;2022-10-04T16:34:43;13.00;;;3.38;;
18887;SDS011;9576;47.792;9.628;2022-10-04T16:37:52;14.52;;;4.25;;
18887;SDS011;9576;47.792;9.628;2022-10-04T16:41:06;15.68;;;4.07;;
18887;SDS011;9576;47.792;9.628;2022-10-04T16:44:30;10.23;;;3.88;;
18887;SDS011;9576;47.792;9.628;2022-10-04T16:47:37;7.97;;;4.60;;
18887;SDS011;9576;47.792;9.628;2022-10-04T16:54:32;8.05;;;4.32;;
18887;SDS011;9576;47.792;9.628;2022-10-04T16:57:42;7.30;;;4.13;;
18887;SDS011;9576;47.792;9.628;2022-10-04T17:00:46;11.38;;;4.53;;
18887;SDS011;9576;47.792;9.628;2022-10-04T17:03:49;11.93;;;4.07;;
18887;SDS011;9576;47.792;9.628;2022-10-04T17:07:01;7.78;;;4.13;;
18887;SDS011;9576;47.792;9.628;2022-10-04T17:10:17;10.40;;;4.70;;
18887;SDS011;9576;47.792;9.628;2022-10-04T17:13:30;9.85;;;4.80;;
18887;SDS011;9576;47.792;9.628;2022-10-04T17:16:37;9.45;;;4.70;;
18887;SDS011;9576;47.792;9.628;2022-10-04T17:19:47;6.03;;;4.32;;
18887;SDS011;9576;47.792;9.628;2022-10-04T17:22:55;7.10;;;4.15;;
18887;SDS011;9576;47.792;9.628;2022-10-04T17:26:07;7.25;;;4.22;;
18887;SDS011;9576;47.792;9.628;2022-10-04T17:29:21;13.52;;;4.88;;
18887;SDS011;9576;47.792;9.628;2022-10-04T17:32:37;7.85;;;3.90;;
18887;SDS011;9576;47.792;9.628;2022-10-04T17:36:02;6.00;;;4.22;;
18887;SDS011;9576;47.792;9.628;2022-10-04T17:39:38;6.20;;;4.15;;
18887;SDS011;9576;47.792;9.628;2022-10-04T17:42:45;12.90;;;4.45;;
18887;SDS011;9576;47.792;9.628;2022-10-04T17:45:58;8.43;;;4.72;;
18887;SDS011;9576;47.792;9.628;2022-10-04T17:49:12;11.80;;;5.55;;
18887;SDS011;9576;47.792;9.628;2022-10-04T17:52:43;16.15;;;6.03;;
18887;SDS011;9576;47.792;9.628;2022-10-04T17:56:06;11.85;;;6.88;;
18887;SDS011;9576;47.792;9.628;2022-10-04T17:59:11;10.15;;;5.47;;
18887;SDS011;9576;47.792;9.628;2022-10-04T18:02:18;9.18;;;5.85;;
18887;SDS011;9576;47.792;9.628;2022-10-04T18:05:30;12.43;;;5.18;;
18887;SDS011;9576;47.792;9.628;2022-10-04T18:08:39;7.55;;;4.90;;
18887;SDS011;9576;47.792;9.628;2022-10-04T18:17:50;11.38;;;5.60;;
18887;SDS011;9576;47.792;9.628;2022-10-04T18:21:19;6.70;;;4.72;;
18887;SDS011;9576;47.792;9.628;2022-10-04T18:24:26;15.30;;;5.15;;
18887;SDS011;9576;47.792;9.628;2022-10-04T18:27:29;11.95;;;4.43;;
18887;SDS011;9576;47.792;9.628;2022-10-04T18:30:32;9.60;;;4.38;;
18887;SDS011;9576;47.792;9.628;2022-10-04T18:33:44;11.98;;;4.35;;
18887;SDS011;9576;47.792;9.628;2022-10-04T18:36:55;9.68;;;5.00;;
18887;SDS011;9576;47.792;9.628;2022-10-04T18:40:12;10.40;;;4.95;;
18887;SDS011;9576;47.792;9.628;2022-10-04T18:43:22;11.50;;;5.25;;
18887;SDS011;9576;47.792;9.628;2022-10-04T18:46:27;9.40;;;5.78;;
18887;SDS011;9576;47.792;9.628;2022-10-04T18:49:43;9.05;;;6.22;;
18887;SDS011;9576;47.792;9.628;2022-10-04T18:52:52;18.90;;;6.80;;
18887;SDS011;9576;47.792;9.628;2022-10-04T18:56:07;9.45;;;5.25;;
18887;SDS011;9576;47.792;9.628;2022-10-04T18:59:12;17.55;;;5.78;;
18887;SDS011;9576;47.792;9.628;2022-10-04T19:02:42;9.90;;;5.47;;
18887;SDS011;9576;47.792;9.628;2022-10-04T19:05:54;17.67;;;6.75;;
18887;SDS011;9576;47.792;9.628;2022-10-04T19:09:02;10.68;;;6.78;;
18887;SDS011;9576;47.792;9.628;2022-10-04T19:12:09;12.82;;;7.80;;
18887;SDS011;9576;47.792;9.628;2022-10-04T19:15:20;19.52;;;7.40;;
18887;SDS011;9576;47.792;9.628;2022-10-04T19:18:38;11.27;;;6.28;;
18887;SDS011;9576;47.792;9.628;2022-10-04T19:21:52;15.82;;;5.70;;
18887;SDS011;9576;47.792;9.628;2022-10-04T19:25:07;21.80;;;6.32;;
18887;SDS011;9576;47.792;9.628;2022-10-04T19:28:24;10.95;;;6.97;;
18887;SDS011;9576;47.792;9.628;2022-10-04T19:31:29;10.25;;;6.70;;
18887;SDS011;9576;47.792;9.628;2022-10-04T19:34:42;15.70;;;7.18;;
18887;SDS011;9576;47.792;9.628;2022-10-04T19:37:55;15.00;;;8.57;;
18887;SDS011;9576;47.792;9.628;2022-10-04T19:41:07;14.48;;;6.50;;
18887;SDS011;9576;47.792;9.628;2022-10-04T19:44:24;9.80;;;5.97;;
18887;SDS011;9576;47.792;9.628;2022-10-04T19:47:38;9.02;;;5.70;;
18887;SDS011;9576;47.792;9.628;2022-10-04T19:50:48;10.07;;;5.70;;
18887;SDS011;9576;47.792;9.628;2022-10-04T19:53:55;9.25;;;5.30;;
18887;SDS011;9576;47.792;9.628;2022-10-04T19:57:04;17.77;;;5.97;;
18887;SDS011;9576;47.792;9.628;2022-10-04T20:00:13;12.45;;;6.55;;
18887;SDS011;9576;47.792;9.628;2022-10-04T20:03:15;13.73;;;6.95;;
18887;SDS011;9576;47.792;9.628;2022-10-04T20:06:18;12.82;;;6.03;;
18887;SDS011;9576;47.792;9.628;2022-10-04T20:09:22;14.85;;;6.15;;
18887;SDS011;9576;47.792;9.628;2022-10-04T20:12:32;14.27;;;6.07;;
18887;SDS011;9576;47.792;9.628;2022-10-04T20:15:43;11.40;;;6.43;;
18887;SDS011;9576;47.792;9.628;2022-10-04T20:18:56;16.63;;;6.30;;
18887;SDS011;9576;47.792;9.628;2022-10-04T20:22:25;16.13;;;6.45;;
18887;SDS011;9576;47.792;9.628;2022-10-04T20:26:00;12.60;;;7.28;;
18887;SDS011;9576;47.792;9.628;2022-10-04T20:29:05;17.95;;;6.07;;
18887;SDS011;9576;47.792;9.628;2022-10-04T20:32:07;11.15;;;6.80;;
18887;SDS011;9576;47.792;9.628;2022-10-04T20:35:12;12.77;;;6.15;;
18887;SDS011;9576;47.792;9.628;2022-10-04T20:38:59;10.15;;;5.72;;
18887;SDS011;9576;47.792;9.628;2022-10-04T20:42:03;13.90;;;6.63;;
18887;SDS011;9576;47.792;9.628;2022-10-04T20:45:23;12.45;;;6.30;;
18887;SDS011;9576;47.792;9.628;2022-10-04T20:48:27;13.80;;;7.05;;
18887;SDS011;9576;47.792;9.628;2022-10-04T20:51:31;10.95;;;6.97;;
18887;SDS011;9576;47.792;9.628;2022-10-04T20:54:33;15.57;;;7.00;;
18887;SDS011;9576;47.792;9.628;2022-10-04T20:57:36;11.45;;;6.30;;
18887;SDS011;9576;47.792;9.628;2022-10-04T21:00:48;15.40;;;6.82;;
18887;SDS011;9576;47.792;9.628;2022-10-04T21:03:52;10.98;;;5.78;;
18887;SDS011;9576;47.792;9.628;2022-10-04T21:06:54;10.55;;;6.07;;
18887;SDS011;9576;47.792;9.628;2022-10-04T21:10:05;20.90;;;6.93;;
18887;SDS011;9576;47.792;9.628;2022-10-04T21:16:44;18.73;;;6.43;;
18887;SDS011;9576;47.792;9.628;2022-10-04T21:19:47;9.23;;;5.85;;